Time;durP1;ratioP1;P1;durP2;ratioP2;P2;SDS_P1;SDS_P2;PMS_P1;PMS_P2;Temp;Humidity;BMP_temperature;BMP_pressure;BME280_temperature;BME280_humidity;BME280_pressure;Samples;Min_cycle;Max_cycle;Signal;HPM_P1;HPM_P2
2023/01/25 00:00:22;;;;;;;5.00;4.50;;;;;;;19.13;45.72;99001.44;4977870;28;20199;-85
2023/01/25 00:02:48;;;;;;;4.83;4.43;;;;;;;19.12;46.03;99001.34;4970751;28;20223;-84
2023/01/25 00:05:15;;;;;;;4.70;4.30;;;;;;;18.98;45.95;98972.44;4964237;28;20203;-85
2023/01/25 00:07:42;;;;;;;4.60;4.10;;;;;;;19.02;46.00;98986.28;4991118;28;20196;-85
2023/01/25 00:10:09;;;;;;;5.10;4.60;;;;;;;19.19;45.99;99012.00;4975015;28;20286;-85
2023/01/25 00:12:35;;;;;;;5.00;4.50;;;;;;;19.28;46.07;99025.38;4958858;28;20321;-85
2023/01/25 00:15:02;;;;;;;4.90;4.40;;;;;;;18.91;46.00;98956.69;4974997;28;20762;-85
2023/01/25 00:17:29;;;;;;;4.93;4.43;;;;;;;19.09;45.60;98984.19;4980807;28;20204;-85
2023/01/25 00:19:55;;;;;;;4.80;4.30;;;;;;;19.10;46.40;98985.09;4974239;28;20753;-85
2023/01/25 00:22:22;;;;;;;5.23;4.73;;;;;;;19.04;46.00;98974.53;4975413;28;20238;-85
2023/01/25 00:24:48;;;;;;;4.87;4.40;;;;;;;19.22;46.19;99001.13;4966177;28;20612;-85
2023/01/25 00:27:15;;;;;;;5.00;4.50;;;;;;;18.66;45.82;98907.56;4975040;28;20211;-85
2023/01/25 00:30:19;;;;;;;4.57;4.17;;;;;;;19.27;45.84;99008.31;4961311;28;20581;-85
2023/01/25 00:33:23;;;;;;;4.70;4.30;;;;;;;19.28;45.93;99010.09;4975352;28;20240;-85
2023/01/25 00:35:55;;;;;;;4.87;4.40;;;;;;;19.07;45.61;98977.25;4990273;28;20210;-85
2023/01/25 00:38:29;;;;;;;5.50;5.00;;;;;;;19.12;45.59;98981.84;4974767;28;20195;-85
2023/01/25 00:40:56;;;;;;;5.47;4.97;;;;;;;19.02;45.65;98960.78;4990342;28;20613;-84
2023/01/25 00:43:23;;;;;;;5.17;4.67;;;;;;;18.97;46.10;98955.41;4975682;28;20308;-85
2023/01/25 00:45:49;;;;;;;5.20;4.70;;;;;;;19.05;45.64;98959.31;4972954;28;20597;-85
2023/01/25 00:48:16;;;;;;;5.30;4.77;;;;;;;19.06;46.20;98961.06;4966117;28;20204;-85
2023/01/25 00:50:42;;;;;;;4.97;4.47;;;;;;;19.06;45.84;98962.72;4974310;28;20239;-85
2023/01/25 00:53:09;;;;;;;5.90;5.23;;;;;;;19.09;45.88;98966.38;4958153;28;20228;-85
2023/01/25 00:55:35;;;;;;;5.07;4.57;;;;;;;18.96;45.60;98938.38;4990550;28;20227;-85
2023/01/25 00:58:02;;;;;;;5.40;4.90;;;;;;;19.08;46.05;98969.72;4989982;28;20235;-84
2023/01/25 01:00:28;;;;;;;6.20;5.10;;;;;;;18.89;45.73;98931.13;4958259;28;20654;-85
2023/01/25 01:02:55;;;;;;;5.60;4.97;;;;;;;19.23;46.08;98990.16;4970693;28;20262;-85
2023/01/25 01:05:22;;;;;;;5.60;5.00;;;;;;;18.97;46.28;98936.69;4990420;28;20215;-85
2023/01/25 01:08:07;;;;;;;5.60;5.00;;;;;;;19.25;46.21;98989.47;4958422;28;20227;-85
2023/01/25 01:10:52;;;;;;;6.57;5.40;;;;;;;19.10;46.14;98957.06;4989916;28;20637;-85
2023/01/25 01:13:38;;;;;;;6.33;5.73;;;;;;;19.25;46.06;98986.03;4974232;28;20644;-85
2023/01/25 01:19:27;;;;;;;5.20;4.70;;;;;;;19.04;46.08;98949.03;4970582;28;20215;-85
2023/01/25 01:21:53;;;;;;;5.30;4.80;;;;;;;19.00;46.00;98945.41;4957743;28;20682;-85
2023/01/25 01:24:20;;;;;;;6.07;5.47;;;;;;;19.09;46.09;98957.81;4979890;28;20592;-85
2023/01/25 01:26:59;;;;;;;6.17;5.57;;;;;;;19.12;45.83;98971.66;4973552;28;20258;-85
2023/01/25 01:29:25;;;;;;;5.47;4.97;;;;;;;19.08;45.78;98951.88;4953593;28;20214;-84
2023/01/25 01:31:52;;;;;;;5.73;5.00;;;;;;;18.94;45.79;98937.41;4965213;28;20243;-85
2023/01/25 01:34:19;;;;;;;5.93;5.33;;;;;;;19.25;45.92;98989.47;4973571;28;20231;-85
2023/01/25 01:36:46;;;;;;;5.73;5.13;;;;;;;19.18;45.94;98974.56;4974531;28;20234;-85
2023/01/25 01:39:12;;;;;;;6.53;5.90;;;;;;;18.99;45.64;98938.56;4973342;28;20632;-85
2023/01/25 01:41:39;;;;;;;6.53;5.90;;;;;;;18.93;45.37;98929.66;4957461;28;20320;-84
2023/01/25 01:44:05;;;;;;;6.20;5.60;;;;;;;19.11;45.72;98956.25;4971205;28;20228;-85
2023/01/25 01:46:36;;;;;;;6.00;5.33;;;;;;;19.05;45.81;98956.78;4974377;28;20278;-85
2023/01/25 01:49:21;;;;;;;6.57;5.87;;;;;;;19.17;46.01;98977.03;4959302;28;20204;-85
2023/01/25 01:51:52;;;;;;;5.90;5.20;;;;;;;19.01;45.90;98944.63;4971148;28;20238;-85
2023/01/25 01:54:37;;;;;;;6.47;5.60;;;;;;;19.15;45.99;98976.03;4956934;28;20223;-85
2023/01/25 01:58:02;;;;;;;6.27;5.63;;;;;;;19.13;46.06;98977.63;4958602;28;20205;-85
2023/01/25 02:00:31;;;;;;;6.17;5.57;;;;;;;18.99;46.01;98951.31;4931203;28;20667;-85
2023/01/25 02:02:58;;;;;;;6.47;5.60;;;;;;;19.07;46.20;98961.97;4956330;28;20240;-85
2023/01/25 02:05:26;;;;;;;6.30;5.53;;;;;;;18.85;45.96;98919.00;4989432;28;20668;-85
2023/01/25 02:07:53;;;;;;;5.70;5.20;;;;;;;19.06;45.87;98955.97;4955286;28;20208;-84
2023/01/25 02:10:20;;;;;;;6.37;5.70;;;;;;;19.24;46.08;98986.78;4979272;28;20286;-85
2023/01/25 02:12:47;;;;;;;6.17;5.57;;;;;;;19.18;46.05;98979.66;4956672;28;20259;-85
2023/01/25 02:15:14;;;;;;;6.63;5.93;;;;;;;18.95;46.02;98943.38;4973015;28;20722;-85
2023/01/25 02:17:40;;;;;;;5.87;5.27;;;;;;;19.13;46.15;98975.94;4972852;28;20235;-85
2023/01/25 02:20:14;;;;;;;6.30;5.70;;;;;;;19.23;46.23;98993.59;4962320;28;20207;-85
2023/01/25 02:22:44;;;;;;;5.70;5.20;;;;;;;19.15;46.06;98976.94;4988608;28;20241;-85
2023/01/25 02:25:11;;;;;;;6.33;5.60;;;;;;;19.18;46.06;98987.31;4972640;28;20376;-85
2023/01/25 02:27:41;;;;;;;6.40;5.80;;;;;;;19.18;46.01;98981.31;4971840;28;20282;-85
2023/01/25 02:30:08;;;;;;;7.03;5.67;;;;;;;19.15;46.24;98973.50;4972787;28;20211;-84
2023/01/25 02:32:35;;;;;;;6.90;5.70;;;;;;;19.18;45.72;98979.66;4988725;28;20626;-85
2023/01/25 02:35:01;;;;;;;6.37;5.73;;;;;;;19.07;45.89;98962.81;4972874;28;20663;-85
2023/01/25 02:37:28;;;;;;;6.67;5.77;;;;;;;18.91;46.15;98938.88;4972347;28;20230;-85
2023/01/25 02:39:54;;;;;;;6.33;5.70;;;;;;;18.99;46.07;98951.31;4962420;28;20207;-85
2023/01/25 02:42:21;;;;;;;7.47;6.63;;;;;;;19.09;45.79;98963.81;4956514;28;20216;-85
2023/01/25 02:44:47;;;;;;;6.60;6.00;;;;;;;18.98;45.52;98949.53;4988854;28;20214;-85
2023/01/25 02:47:14;;;;;;;6.07;5.47;;;;;;;19.08;45.51;98961.16;4956553;28;20670;-85
2023/01/25 02:49:41;;;;;;;7.00;6.30;;;;;;;19.01;45.67;98952.25;4971687;28;20213;-85
2023/01/25 02:52:08;;;;;;;6.47;5.77;;;;;;;18.66;45.83;98894.84;4964263;28;20255;-85
2023/01/25 02:54:34;;;;;;;6.20;5.60;;;;;;;18.76;45.59;98913.34;4972644;28;20686;-85
2023/01/25 02:57:01;;;;;;;6.70;6.00;;;;;;;19.09;46.42;98962.91;4978084;28;20206;-85
2023/01/25 02:59:28;;;;;;;7.43;5.93;;;;;;;19.10;45.86;98963.00;4956030;28;20554;-85
2023/01/25 03:01:54;;;;;;;6.87;5.83;;;;;;;19.10;46.20;98957.06;4971582;28;20703;-85
2023/01/25 03:04:21;;;;;;;6.37;5.77;;;;;;;18.96;45.77;98940.03;4972047;28;20302;-85
2023/01/25 03:06:49;;;;;;;6.30;5.60;;;;;;;19.15;45.92;98963.28;4970356;28;20207;-85
2023/01/25 03:09:15;;;;;;;6.03;5.40;;;;;;;19.02;46.45;98938.75;4971279;28;20200;-84
2023/01/25 03:11:42;;;;;;;6.30;5.70;;;;;;;19.09;46.26;98947.63;4970488;28;20237;-84
2023/01/25 03:14:09;;;;;;;6.70;6.00;;;;;;;19.05;45.75;98931.28;4980793;28;20228;-85
2023/01/25 03:16:35;;;;;;;6.07;5.43;;;;;;;18.94;45.78;98919.56;4971846;28;20273;-85
2023/01/25 03:19:02;;;;;;;7.57;5.97;;;;;;;18.95;45.96;98920.44;4976048;28;20200;-85
2023/01/25 03:21:28;;;;;;;6.43;5.83;;;;;;;18.81;46.05;98896.69;4968492;28;20200;-85
2023/01/25 03:24:00;;;;;;;6.43;5.73;;;;;;;18.98;45.87;98924.03;4955830;28;20224;-85
2023/01/25 03:26:27;;;;;;;6.70;6.10;;;;;;;19.01;45.85;98924.22;4972065;28;20196;-85
2023/01/25 03:28:53;;;;;;;6.37;5.77;;;;;;;19.23;46.04;98970.66;4970964;28;20291;-85
2023/01/25 03:31:20;;;;;;;6.80;6.10;;;;;;;19.16;46.00;98943.00;4987537;28;20279;-85
2023/01/25 03:33:47;;;;;;;7.00;6.30;;;;;;;18.96;45.89;98914.56;4959218;28;20301;-85
2023/01/25 03:36:14;;;;;;;6.57;5.97;;;;;;;19.06;45.96;98927.94;4971310;28;20248;-85
2023/01/25 03:38:40;;;;;;;6.70;5.97;;;;;;;19.16;45.71;98949.78;4974032;28;20690;-85
2023/01/25 03:41:07;;;;;;;6.70;5.97;;;;;;;18.94;45.90;98901.72;4954768;28;20263;-84
2023/01/25 03:43:34;;;;;;;6.73;5.93;;;;;;;18.79;45.79;98875.31;4987667;28;20219;-85
2023/01/25 03:46:00;;;;;;;6.37;5.57;;;;;;;19.11;45.78;98934.22;4971153;28;20253;-85
2023/01/25 03:48:27;;;;;;;7.07;6.37;;;;;;;19.07;45.52;98922.06;4954699;28;20216;-85
2023/01/25 03:50:55;;;;;;;6.83;6.13;;;;;;;19.09;45.84;98930.69;4954263;28;20302;-85
2023/01/25 03:53:29;;;;;;;7.63;6.27;;;;;;;18.97;45.58;98909.56;4955075;28;20223;-85
2023/01/25 03:55:57;;;;;;;7.40;6.13;;;;;;;18.88;45.89;98893.72;4978838;28;20217;-85
2023/01/25 03:58:24;;;;;;;6.33;5.73;;;;;;;19.14;45.71;98928.41;4955227;28;20274;-85
2023/01/25 04:00:50;;;;;;;6.53;5.90;;;;;;;19.06;45.70;98921.97;4959301;28;20676;-84
2023/01/25 04:03:20;;;;;;;6.77;5.63;;;;;;;19.17;45.95;98937.13;4955121;28;20270;-85
2023/01/25 04:05:46;;;;;;;6.70;6.00;;;;;;;19.09;45.85;98911.97;4968449;28;20207;-84
2023/01/25 04:08:13;;;;;;;6.60;5.97;;;;;;;19.06;45.89;98901.59;4973340;28;20203;-85
2023/01/25 04:10:40;;;;;;;7.40;6.33;;;;;;;19.01;45.73;98898.75;4970719;28;20282;-85
2023/01/25 04:13:06;;;;;;;7.03;6.03;;;;;;;19.06;45.81;98906.69;4962539;28;20263;-85
2023/01/25 04:15:33;;;;;;;7.20;6.37;;;;;;;18.99;45.97;98890.16;4970899;28;20199;-85
2023/01/25 04:17:59;;;;;;;6.47;5.87;;;;;;;19.02;45.98;98899.66;4960968;28;20285;-85
2023/01/25 04:20:26;;;;;;;7.00;6.30;;;;;;;19.23;45.85;98928.97;4970404;28;20585;-85
2023/01/25 04:22:52;;;;;;;7.03;5.77;;;;;;;18.96;46.10;98886.53;4959653;28;20232;-84
2023/01/25 04:25:19;;;;;;;6.60;5.87;;;;;;;19.02;45.81;98890.34;4969275;28;20235;-85
2023/01/25 04:27:45;;;;;;;6.07;5.47;;;;;;;19.24;45.90;98930.72;4970538;28;20628;-85
2023/01/25 04:30:12;;;;;;;7.07;6.10;;;;;;;19.11;45.95;98900.19;4973702;28;20292;-85
2023/01/25 04:32:39;;;;;;;6.30;5.70;;;;;;;19.09;45.99;98896.66;4964379;28;20223;-85
2023/01/25 04:35:06;;;;;;;6.53;5.87;;;;;;;19.07;46.05;98890.63;4960106;28;20209;-84
2023/01/25 04:37:33;;;;;;;6.83;6.17;;;;;;;18.79;45.53;98837.13;4963522;28;20211;-84
2023/01/25 04:39:59;;;;;;;6.83;6.13;;;;;;;19.05;45.87;98874.34;4955077;28;20288;-84
2023/01/25 04:42:26;;;;;;;5.87;5.27;;;;;;;19.23;45.88;98906.03;4979166;28;20257;-85
2023/01/25 04:44:52;;;;;;;6.97;5.90;;;;;;;19.19;45.95;98897.31;4972154;28;20262;-85
2023/01/25 04:47:19;;;;;;;6.60;6.00;;;;;;;19.03;45.93;98864.06;4960276;28;20200;-85
2023/01/25 04:49:45;;;;;;;7.43;6.73;;;;;;;18.96;45.75;98863.59;4957262;28;20713;-85
2023/01/25 04:52:12;;;;;;;7.20;6.50;;;;;;;19.09;45.96;98877.19;4960275;28;20255;-85
2023/01/25 04:54:38;;;;;;;6.67;5.97;;;;;;;18.61;45.54;98795.25;4966684;28;20231;-85
2023/01/25 04:57:05;;;;;;;6.77;5.87;;;;;;;19.07;45.80;98871.09;4977063;28;20210;-85
2023/01/25 04:59:32;;;;;;;6.70;6.00;;;;;;;19.06;45.71;98871.91;4970052;28;20204;-84
2023/01/25 05:01:58;;;;;;;6.77;6.10;;;;;;;18.80;45.90;98826.13;4969980;28;20298;-84
2023/01/25 05:04:25;;;;;;;6.83;6.13;;;;;;;19.23;46.00;98904.38;4967131;28;20204;-85
2023/01/25 05:06:51;;;;;;;6.40;5.70;;;;;;;19.18;45.51;98895.56;4974237;28;20701;-85
2023/01/25 05:09:18;;;;;;;7.47;6.10;;;;;;;18.95;45.58;98849.13;4975393;28;20203;-85
2023/01/25 05:11:45;;;;;;;6.50;5.80;;;;;;;19.03;46.10;98853.00;4990483;28;20211;-85
2023/01/25 05:14:11;;;;;;;6.80;5.93;;;;;;;18.88;45.81;98824.03;4977535;28;20310;-85
2023/01/25 05:16:38;;;;;;;6.30;5.70;;;;;;;19.07;46.05;98857.50;4965911;28;20683;-85
2023/01/25 05:19:04;;;;;;;6.67;5.47;;;;;;;19.03;46.12;98843.69;4969409;28;20208;-85
2023/01/25 05:24:16;;;;;;;6.57;5.90;;;;;;;18.98;45.93;98844.22;4984757;28;20287;-85
2023/01/25 05:29:35;;;;;;;6.50;5.73;;;;;;;19.00;45.76;98846.03;4988474;28;20217;-85
2023/01/25 05:32:22;;;;;;;6.03;5.43;;;;;;;19.25;45.88;98892.63;4971177;28;20677;-85
2023/01/25 05:34:49;;;;;;;6.63;5.93;;;;;;;19.08;45.92;98854.16;4970736;28;20309;-85
2023/01/25 05:37:18;;;;;;;6.97;6.07;;;;;;;18.63;45.97;98797.91;4952742;28;20258;-85
2023/01/25 05:39:45;;;;;;;6.67;6.00;;;;;;;19.24;46.13;98877.19;4952707;28;20266;-85
2023/01/25 05:42:13;;;;;;;6.50;5.87;;;;;;;19.01;45.91;98845.25;4974520;28;20239;-85
2023/01/25 05:44:40;;;;;;;6.90;5.70;;;;;;;19.26;45.75;98902.00;4958873;28;20565;-85
2023/01/25 05:47:14;;;;;;;6.57;5.90;;;;;;;19.08;45.78;98855.03;4949174;28;20212;-84
2023/01/25 05:49:40;;;;;;;6.47;5.87;;;;;;;19.01;45.65;98831.66;4974667;28;20722;-85
2023/01/25 05:52:14;;;;;;;7.70;6.10;;;;;;;18.65;45.79;98775.97;4957187;28;20243;-85
2023/01/25 05:54:41;;;;;;;6.20;5.60;;;;;;;18.61;45.41;98766.38;4944103;28;20247;-85
2023/01/25 05:57:08;;;;;;;6.17;5.50;;;;;;;19.07;45.68;98843.06;4956846;28;20267;-87
2023/01/25 05:59:34;;;;;;;8.30;7.50;;;;;;;18.98;45.16;98821.28;4990366;28;20207;-87
2023/01/25 06:02:01;;;;;;;12.60;10.83;;;;;;;19.02;44.12;98833.41;4960626;28;20238;-85
2023/01/25 06:04:27;;;;;;;16.73;11.70;;;;;;;19.17;43.50;98862.34;4969188;28;20279;-86
2023/01/25 06:06:54;;;;;;;12.63;11.07;;;;;;;18.94;42.90;98821.88;4971386;28;20294;-84
2023/01/25 06:09:21;;;;;;;14.83;12.50;;;;;;;18.59;42.68;98758.63;4958386;28;20204;-85
2023/01/25 06:11:47;;;;;;;14.90;11.37;;;;;;;19.03;42.45;98832.59;4959376;28;20211;-85
2023/01/25 06:14:14;;;;;;;15.00;11.03;;;;;;;18.96;42.68;98825.41;4958030;28;20254;-85
2023/01/25 06:16:41;;;;;;;15.67;11.00;;;;;;;19.09;42.72;98848.25;4960129;28;20208;-85
2023/01/25 06:19:07;;;;;;;11.63;10.43;;;;;;;18.98;43.36;98827.22;4971673;28;20314;-85
2023/01/25 06:21:35;;;;;;;12.23;10.93;;;;;;;18.93;43.69;98826.09;4964999;28;20313;-85
2023/01/25 06:24:03;;;;;;;12.50;10.30;;;;;;;19.17;43.87;98868.34;4954765;28;20234;-84
2023/01/25 06:26:30;;;;;;;11.23;10.13;;;;;;;18.99;44.13;98828.13;4966328;28;20204;-85
2023/01/25 06:28:56;;;;;;;10.57;9.47;;;;;;;19.00;44.00;98838.41;4956051;28;20298;-85
2023/01/25 06:31:23;;;;;;;10.40;9.30;;;;;;;18.93;44.18;98817.56;4966517;28;20212;-85
2023/01/25 06:33:50;;;;;;;12.37;9.67;;;;;;;19.00;44.37;98828.22;4956444;28;20343;-84
2023/01/25 06:36:17;;;;;;;10.27;9.17;;;;;;;19.01;44.37;98829.09;4954733;28;20222;-84
2023/01/25 06:38:49;;;;;;;10.63;8.23;;;;;;;18.75;44.17;98773.16;4987184;28;20293;-85
2023/01/25 06:41:16;;;;;;;10.17;8.80;;;;;;;19.08;44.70;98838.88;4962563;28;20732;-85
2023/01/25 06:43:43;;;;;;;10.07;8.57;;;;;;;18.95;44.47;98821.09;4994108;28;20223;-91
2023/01/25 06:46:12;;;;;;;9.83;7.70;;;;;;;18.60;44.50;98749.34;4983072;28;20196;-93
2023/01/25 06:48:41;;;;;;;8.67;7.77;;;;;;;18.71;44.91;98773.78;4997819;28;20219;-90
2023/01/25 06:51:10;;;;;;;8.90;8.00;;;;;;;19.01;44.57;98824.88;4974148;28;20212;-84
2023/01/25 06:53:38;;;;;;;10.23;7.93;;;;;;;19.09;44.51;98831.31;4972724;28;20769;-83
2023/01/25 06:56:06;;;;;;;9.23;7.87;;;;;;;19.11;44.21;98839.94;4972093;28;20573;-84
2023/01/25 06:58:36;;;;;;;15.77;10.23;;;;;;;18.99;43.25;98813.72;4977095;28;20199;-84
2023/01/25 07:01:05;;;;;;;13.00;10.50;;;;;;;18.91;42.20;98797.09;4960895;28;20211;-84
2023/01/25 07:03:31;;;;;;;12.57;11.17;;;;;;;18.95;41.94;98808.38;4967604;28;20235;-84
2023/01/25 07:06:08;;;;;;;12.67;10.20;;;;;;;18.98;42.36;98809.41;4962200;28;20208;-83
2023/01/25 07:08:34;;;;;;;13.80;10.47;;;;;;;18.93;42.87;98813.38;4961010;28;20290;-84
2023/01/25 07:11:03;;;;;;;13.00;9.87;;;;;;;18.89;43.00;98806.31;4939951;28;20208;-84
2023/01/25 07:13:30;;;;;;;15.20;10.03;;;;;;;19.00;43.24;98817.13;4968788;28;20230;-84
2023/01/25 07:16:01;;;;;;;11.07;9.83;;;;;;;19.00;43.27;98820.56;4959553;28;20220;-83
2023/01/25 07:18:31;;;;;;;11.50;9.47;;;;;;;19.04;43.48;98832.69;4967528;28;20207;-84
2023/01/25 07:21:02;;;;;;;13.00;8.90;;;;;;;18.91;43.65;98807.28;4968461;28;20588;-84
2023/01/25 07:23:30;;;;;;;9.57;8.30;;;;;;;18.81;43.58;98784.63;4967983;28;20886;-84
2023/01/25 07:25:57;;;;;;;12.10;9.10;;;;;;;18.91;43.78;98811.50;4970032;28;20231;-83
2023/01/25 07:28:24;;;;;;;9.03;8.07;;;;;;;18.98;43.88;98813.63;4954617;28;20208;-85
2023/01/25 07:30:50;;;;;;;9.83;8.73;;;;;;;18.88;43.71;98798.56;4970679;28;20219;-84
2023/01/25 07:33:17;;;;;;;9.30;8.20;;;;;;;19.12;44.29;98835.69;4978167;28;20313;-84
2023/01/25 07:35:44;;;;;;;9.50;8.50;;;;;;;18.99;44.10;98818.81;4975541;28;20314;-85
2023/01/25 07:38:10;;;;;;;11.10;8.47;;;;;;;18.90;44.38;98804.66;4952718;28;20327;-84
2023/01/25 07:40:39;;;;;;;8.40;7.50;;;;;;;18.87;44.05;98800.25;4963113;28;20260;-85
2023/01/25 07:43:05;;;;;;;9.23;8.30;;;;;;;18.84;44.60;98784.78;4960465;28;20962;-85
2023/01/25 07:45:32;;;;;;;8.37;7.53;;;;;;;19.02;44.64;98824.09;4964856;28;20200;-84
2023/01/25 07:47:59;;;;;;;9.47;7.67;;;;;;;18.97;44.45;98815.28;4983006;28;20319;-83
2023/01/25 07:50:26;;;;;;;8.13;7.33;;;;;;;18.95;44.45;98809.22;4973363;28;20269;-84
2023/01/25 07:52:52;;;;;;;8.50;7.53;;;;;;;19.05;44.42;98824.28;4942970;28;20232;-84
2023/01/25 07:55:19;;;;;;;8.30;7.30;;;;;;;18.96;44.51;98803.34;4937608;28;20255;-84
2023/01/25 07:57:48;;;;;;;8.60;7.63;;;;;;;18.63;44.36;98740.22;4977533;28;20582;-84
2023/01/25 08:00:15;;;;;;;8.07;7.27;;;;;;;18.96;44.73;98794.81;4973991;28;20208;-84
2023/01/25 08:02:42;;;;;;;8.47;6.50;;;;;;;18.57;44.48;98739.84;4964745;28;20757;-84
2023/01/25 08:05:09;;;;;;;7.87;7.07;;;;;;;19.00;44.54;98810.38;4983124;28;20208;-84
2023/01/25 08:07:36;;;;;;;9.50;7.23;;;;;;;18.94;44.49;98794.72;4954037;28;20230;-84
2023/01/25 08:10:03;;;;;;;8.00;7.17;;;;;;;18.99;44.93;98802.66;4964262;28;20234;-84
2023/01/25 08:12:30;;;;;;;8.90;7.07;;;;;;;18.99;44.87;98803.53;4970040;28;20224;-84
2023/01/25 08:14:56;;;;;;;7.63;6.83;;;;;;;19.20;44.22;98843.03;4970039;28;20223;-84
2023/01/25 08:17:23;;;;;;;8.80;6.87;;;;;;;19.01;44.63;98803.63;4979551;28;20215;-84
2023/01/25 08:19:49;;;;;;;7.47;6.37;;;;;;;18.97;44.71;98802.56;4975397;28;20243;-84
2023/01/25 08:22:16;;;;;;;6.90;6.00;;;;;;;19.06;44.89;98814.94;4954736;28;20292;-84
2023/01/25 08:24:43;;;;;;;8.03;6.83;;;;;;;19.04;44.46;98809.75;4962030;28;20351;-84
2023/01/25 08:27:10;;;;;;;6.63;5.97;;;;;;;19.09;45.25;98828.75;4972649;28;20206;-84
2023/01/25 08:29:36;;;;;;;7.40;6.60;;;;;;;18.98;44.83;98811.94;4973983;28;20210;-84
2023/01/25 08:32:05;;;;;;;6.87;6.17;;;;;;;18.92;44.72;98798.84;4958887;28;20269;-83
2023/01/25 08:34:31;;;;;;;6.60;6.00;;;;;;;18.96;44.74;98810.09;4975009;28;20224;-84
2023/01/25 08:36:58;;;;;;;7.13;6.40;;;;;;;19.02;44.89;98824.09;4971201;28;20254;-84
2023/01/25 08:39:24;;;;;;;6.70;5.87;;;;;;;19.02;44.86;98815.56;4990074;28;20206;-84
2023/01/25 08:41:51;;;;;;;6.30;5.70;;;;;;;18.98;44.70;98811.94;4983978;28;20212;-84
2023/01/25 08:44:22;;;;;;;5.93;5.43;;;;;;;19.12;44.84;98828.06;4956953;28;20251;-84
2023/01/25 08:46:49;;;;;;;6.47;5.80;;;;;;;18.66;44.90;98755.69;4964749;28;20231;-84
2023/01/25 08:49:16;;;;;;;6.50;5.90;;;;;;;18.98;44.94;98800.91;4958139;28;20326;-84
2023/01/25 08:51:42;;;;;;;6.50;5.90;;;;;;;18.92;44.94;98780.16;4974223;28;20258;-84
2023/01/25 08:54:12;;;;;;;6.50;5.87;;;;;;;18.92;45.04;98781.00;4966120;28;20239;-84
2023/01/25 08:56:39;;;;;;;6.07;5.47;;;;;;;18.97;45.15;98789.81;4974849;28;20598;-84
2023/01/25 08:59:06;;;;;;;7.13;5.87;;;;;;;19.04;45.18;98796.16;4979023;28;20266;-84
2023/01/25 09:01:32;;;;;;;6.70;5.97;;;;;;;19.06;45.34;98807.31;4989089;28;20231;-84
2023/01/25 09:03:59;;;;;;;6.23;5.63;;;;;;;18.89;45.56;98775.75;4968708;28;20308;-84
2023/01/25 09:06:25;;;;;;;6.47;5.83;;;;;;;18.97;45.13;98787.28;4963023;28;20246;-84
2023/01/25 09:08:52;;;;;;;5.97;5.30;;;;;;;19.03;45.10;98802.03;4983038;28;20581;-84
2023/01/25 09:11:20;;;;;;;6.50;5.60;;;;;;;18.99;44.77;98788.25;4975390;28;20286;-84
2023/01/25 09:13:47;;;;;;;6.00;5.40;;;;;;;19.02;44.92;98790.97;4976793;28;20227;-84
2023/01/25 09:16:25;;;;;;;6.40;5.80;;;;;;;18.98;44.89;98780.53;4975502;28;20215;-84
2023/01/25 09:18:51;;;;;;;6.50;5.90;;;;;;;19.01;45.55;98785.78;4958315;28;20207;-84
2023/01/25 09:21:18;;;;;;;5.80;5.20;;;;;;;19.11;44.98;98803.38;4989735;28;20674;-84
2023/01/25 09:23:49;;;;;;;6.63;5.93;;;;;;;18.89;45.11;98762.16;4973932;28;20255;-84
2023/01/25 09:26:31;;;;;;;6.67;5.83;;;;;;;19.01;45.12;98780.69;4966159;28;20199;-84
2023/01/25 09:28:58;;;;;;;6.33;5.73;;;;;;;19.05;45.45;98793.72;4973543;28;20206;-84
2023/01/25 09:31:24;;;;;;;6.33;5.73;;;;;;;19.19;44.99;98818.31;4976976;28;20600;-84
2023/01/25 09:33:53;;;;;;;5.20;4.70;;;;;;;19.11;44.91;98800.81;4973531;28;20702;-84
2023/01/25 09:36:24;;;;;;;5.50;4.93;;;;;;;18.98;45.24;98778.81;4955249;28;20236;-84
2023/01/25 09:38:51;;;;;;;5.60;5.10;;;;;;;18.88;45.33;98761.25;4988986;28;20258;-84
2023/01/25 09:41:42;;;;;;;5.63;5.07;;;;;;;19.19;45.29;98814.91;4972482;28;20239;-84
2023/01/25 09:44:38;;;;;;;5.57;5.07;;;;;;;19.20;45.24;98819.19;4972672;28;20227;-84
2023/01/25 09:47:13;;;;;;;5.40;4.90;;;;;;;19.00;45.19;98787.44;4957392;28;20746;-84
2023/01/25 09:49:55;;;;;;;6.33;5.30;;;;;;;19.19;45.38;98808.13;4970473;28;20718;-84
2023/01/25 09:52:51;;;;;;;5.80;5.20;;;;;;;19.13;44.99;98796.72;4973046;28;20306;-84
2023/01/25 09:55:18;;;;;;;5.63;5.07;;;;;;;18.97;45.11;98771.97;4971065;28;20228;-84
2023/01/25 09:57:44;;;;;;;5.20;4.70;;;;;;;19.19;45.34;98814.91;4973191;28;20239;-84
2023/01/25 10:00:18;;;;;;;5.70;5.00;;;;;;;18.95;45.26;98768.47;4972662;28;20290;-84
2023/01/25 10:02:56;;;;;;;5.53;5.03;;;;;;;19.18;44.96;98796.19;4973186;28;20769;-84
2023/01/25 10:05:26;;;;;;;5.67;5.07;;;;;;;19.10;45.02;98781.25;4954664;28;20204;-84
2023/01/25 10:08:21;;;;;;;5.23;4.77;;;;;;;19.19;45.14;98791.97;4957134;28;20258;-84
2023/01/25 10:10:47;;;;;;;5.10;4.60;;;;;;;19.02;45.25;98762.06;4978014;28;20258;-84
2023/01/25 10:13:16;;;;;;;5.13;4.63;;;;;;;19.03;45.27;98759.59;4972184;28;20224;-84
2023/01/25 10:16:03;;;;;;;5.13;4.63;;;;;;;19.02;45.37;98759.50;4981728;28;20278;-84
2023/01/25 10:18:38;;;;;;;5.47;4.97;;;;;;;19.10;45.34;98769.34;4971852;28;20584;-84
2023/01/25 10:21:20;;;;;;;5.53;5.03;;;;;;;19.15;45.56;98769.63;4988931;28;20199;-84
2023/01/25 10:24:05;;;;;;;7.20;5.03;;;;;;;19.19;45.43;98776.69;4969555;28;20260;-84
2023/01/25 10:26:33;;;;;;;4.97;4.47;;;;;;;19.04;45.08;98755.41;4973662;28;20200;-84
2023/01/25 10:29:26;;;;;;;5.17;4.60;;;;;;;19.19;45.40;98771.56;4972690;28;20211;-84
2023/01/25 10:32:18;;;;;;;5.50;5.00;;;;;;;19.19;45.27;98774.97;4967434;28;20261;-83
2023/01/25 10:34:49;;;;;;;5.03;4.53;;;;;;;19.00;45.39;98736.50;4966807;28;20219;-85
2023/01/25 10:37:26;;;;;;;5.23;4.53;;;;;;;18.94;45.37;98723.41;4978235;28;20697;-85
2023/01/25 10:40:03;;;;;;;5.37;4.87;;;;;;;19.19;45.49;98762.25;4971545;28;20207;-85
2023/01/25 10:42:32;;;;;;;5.27;4.77;;;;;;;18.95;45.62;98721.75;4977962;28;20223;-85
2023/01/25 10:44:59;;;;;;;5.27;4.77;;;;;;;19.12;45.55;98743.97;4976267;28;20204;-85
2023/01/25 10:47:30;;;;;;;5.33;4.83;;;;;;;18.69;45.52;98656.56;4960922;28;20206;-84
2023/01/25 10:49:57;;;;;;;5.03;4.60;;;;;;;18.97;45.54;98704.84;4958157;28;20214;-85
2023/01/25 10:52:25;;;;;;;5.13;4.63;;;;;;;19.14;45.45;98732.19;4962136;28;20230;-85
2023/01/25 10:55:22;;;;;;;5.20;4.70;;;;;;;19.07;45.42;98719.91;4960605;28;20649;-85
2023/01/25 10:57:53;;;;;;;5.43;4.93;;;;;;;19.06;45.58;98711.38;4985512;28;20208;-85
2023/01/25 11:00:36;;;;;;;4.90;4.40;;;;;;;19.20;45.70;98728.34;4973389;28;20206;-85
2023/01/25 11:03:03;;;;;;;4.93;4.43;;;;;;;18.87;45.75;98670.34;4957970;28;20219;-85
2023/01/25 11:05:40;;;;;;;5.47;4.97;;;;;;;19.04;45.64;98701.91;4938825;28;20231;-85
2023/01/25 11:08:37;;;;;;;5.10;4.60;;;;;;;19.20;45.82;98713.06;4970679;28;20200;-84
2023/01/25 11:11:14;;;;;;;4.93;4.53;;;;;;;19.19;45.66;98710.41;4952890;28;20211;-85
2023/01/25 11:13:41;;;;;;;5.10;4.33;;;;;;;18.80;45.49;98637.66;4955576;28;20310;-85
2023/01/25 11:16:36;;;;;;;5.33;4.83;;;;;;;19.04;45.73;98678.97;4979191;28;20255;-85
2023/01/25 11:19:02;;;;;;;5.60;5.10;;;;;;;19.01;45.48;98673.69;4958547;28;20674;-85
2023/01/25 11:21:33;;;;;;;5.10;4.60;;;;;;;18.89;45.55;98644.97;4979114;28;20211;-85
2023/01/25 11:24:01;;;;;;;5.53;4.97;;;;;;;19.20;45.40;98697.75;4959035;28;20323;-85
2023/01/25 11:26:31;;;;;;;4.97;4.53;;;;;;;18.76;45.41;98622.13;4971867;28;20718;-85
2023/01/25 11:29:20;;;;;;;5.10;4.60;;;;;;;19.06;45.50;98670.59;4948825;28;20280;-85
2023/01/25 11:31:48;;;;;;;4.63;4.23;;;;;;;19.20;45.59;98684.13;4951118;28;20208;-85
2023/01/25 11:34:16;;;;;;;6.87;4.43;;;;;;;18.97;45.57;98636.06;4961295;28;20322;-85
2023/01/25 11:37:02;;;;;;;5.00;4.60;;;;;;;19.21;45.50;98674.03;4974232;28;20239;-85
2023/01/25 11:39:54;;;;;;;5.50;5.00;;;;;;;19.06;45.52;98646.78;4974913;28;20380;-85
2023/01/25 11:42:37;;;;;;;5.17;4.67;;;;;;;19.02;45.53;98634.69;4962964;28;20232;-85
2023/01/25 11:45:18;;;;;;;6.27;4.80;;;;;;;19.20;45.30;98661.19;4958670;28;20211;-85
2023/01/25 11:48:07;;;;;;;5.50;5.00;;;;;;;19.11;45.29;98651.38;4974379;28;20233;-85
2023/01/25 11:50:56;;;;;;;5.63;5.13;;;;;;;19.20;45.19;98656.09;4946487;28;20290;-85
2023/01/25 11:53:58;;;;;;;5.23;4.73;;;;;;;19.19;45.43;98650.09;4963397;28;20230;-85